sensor_id;sensor_type;location;lat;lon;timestamp;P1;durP1;ratioP1;P2;durP2;ratioP2
19664;SDS011;9980;51.020;7.772;2024-01-30T00:00:33;12.20;;;10.30;;
19664;SDS011;9980;51.020;7.772;2024-01-30T00:03:00;12.87;;;10.50;;
19664;SDS011;9980;51.020;7.772;2024-01-30T00:05:27;11.97;;;10.87;;
19664;SDS011;9980;51.020;7.772;2024-01-30T00:07:54;12.80;;;11.33;;
19664;SDS011;9980;51.020;7.772;2024-01-30T00:10:21;12.83;;;11.63;;
19664;SDS011;9980;51.020;7.772;2024-01-30T00:12:48;11.23;;;10.07;;
19664;SDS011;9980;51.020;7.772;2024-01-30T00:15:15;13.67;;;11.73;;
19664;SDS011;9980;51.020;7.772;2024-01-30T00:17:42;11.23;;;10.13;;
19664;SDS011;9980;51.020;7.772;2024-01-30T00:20:09;12.93;;;11.63;;
19664;SDS011;9980;51.020;7.772;2024-01-30T00:22:37;11.70;;;10.57;;
19664;SDS011;9980;51.020;7.772;2024-01-30T00:25:04;13.17;;;10.27;;
19664;SDS011;9980;51.020;7.772;2024-01-30T00:27:31;12.63;;;10.23;;
19664;SDS011;9980;51.020;7.772;2024-01-30T00:29:58;11.77;;;9.80;;
19664;SDS011;9980;51.020;7.772;2024-01-30T00:32:25;11.50;;;10.40;;
19664;SDS011;9980;51.020;7.772;2024-01-30T00:34:52;10.60;;;9.27;;
19664;SDS011;9980;51.020;7.772;2024-01-30T00:37:19;15.13;;;12.60;;
19664;SDS011;9980;51.020;7.772;2024-01-30T00:39:46;14.40;;;11.77;;
19664;SDS011;9980;51.020;7.772;2024-01-30T00:42:13;12.87;;;11.50;;
19664;SDS011;9980;51.020;7.772;2024-01-30T00:44:40;12.27;;;11.07;;
19664;SDS011;9980;51.020;7.772;2024-01-30T00:47:07;10.37;;;9.37;;
19664;SDS011;9980;51.020;7.772;2024-01-30T00:49:34;11.40;;;10.20;;
19664;SDS011;9980;51.020;7.772;2024-01-30T00:52:01;10.10;;;9.10;;
19664;SDS011;9980;51.020;7.772;2024-01-30T00:54:29;11.30;;;10.20;;
19664;SDS011;9980;51.020;7.772;2024-01-30T00:56:56;11.30;;;10.17;;
19664;SDS011;9980;51.020;7.772;2024-01-30T00:59:23;16.27;;;12.80;;
19664;SDS011;9980;51.020;7.772;2024-01-30T01:01:50;13.93;;;12.47;;
19664;SDS011;9980;51.020;7.772;2024-01-30T01:04:17;12.67;;;11.23;;
19664;SDS011;9980;51.020;7.772;2024-01-30T01:06:44;13.37;;;12.00;;
19664;SDS011;9980;51.020;7.772;2024-01-30T01:09:11;12.60;;;11.30;;
19664;SDS011;9980;51.020;7.772;2024-01-30T01:11:39;14.63;;;12.70;;
19664;SDS011;9980;51.020;7.772;2024-01-30T01:14:06;12.50;;;11.13;;
19664;SDS011;9980;51.020;7.772;2024-01-30T01:16:33;12.50;;;11.20;;
19664;SDS011;9980;51.020;7.772;2024-01-30T01:19:00;12.80;;;11.47;;
19664;SDS011;9980;51.020;7.772;2024-01-30T01:21:27;11.83;;;10.53;;
19664;SDS011;9980;51.020;7.772;2024-01-30T01:23:54;15.83;;;12.10;;
19664;SDS011;9980;51.020;7.772;2024-01-30T01:26:22;12.87;;;11.43;;
19664;SDS011;9980;51.020;7.772;2024-01-30T01:28:49;13.67;;;12.27;;
19664;SDS011;9980;51.020;7.772;2024-01-30T01:31:16;12.60;;;11.27;;
19664;SDS011;9980;51.020;7.772;2024-01-30T01:33:44;18.73;;;13.33;;
19664;SDS011;9980;51.020;7.772;2024-01-30T01:36:13;14.73;;;13.10;;
19664;SDS011;9980;51.020;7.772;2024-01-30T01:38:40;14.77;;;12.87;;
19664;SDS011;9980;51.020;7.772;2024-01-30T01:41:07;13.80;;;12.07;;
19664;SDS011;9980;51.020;7.772;2024-01-30T01:43:34;13.07;;;11.77;;
19664;SDS011;9980;51.020;7.772;2024-01-30T01:46:00;12.73;;;11.43;;
19664;SDS011;9980;51.020;7.772;2024-01-30T01:48:28;13.13;;;11.63;;
19664;SDS011;9980;51.020;7.772;2024-01-30T01:50:55;12.40;;;11.10;;
19664;SDS011;9980;51.020;7.772;2024-01-30T01:53:24;11.83;;;10.70;;
19664;SDS011;9980;51.020;7.772;2024-01-30T01:55:52;10.10;;;9.20;;
19664;SDS011;9980;51.020;7.772;2024-01-30T01:58:21;12.97;;;11.57;;
19664;SDS011;9980;51.020;7.772;2024-01-30T02:00:50;14.20;;;12.70;;
19664;SDS011;9980;51.020;7.772;2024-01-30T02:03:18;13.43;;;12.03;;
19664;SDS011;9980;51.020;7.772;2024-01-30T02:05:48;12.13;;;10.90;;
19664;SDS011;9980;51.020;7.772;2024-01-30T02:08:17;12.90;;;11.60;;
19664;SDS011;9980;51.020;7.772;2024-01-30T02:10:44;14.47;;;12.60;;
19664;SDS011;9980;51.020;7.772;2024-01-30T02:13:11;16.20;;;13.47;;
19664;SDS011;9980;51.020;7.772;2024-01-30T02:15:38;13.03;;;11.73;;
19664;SDS011;9980;51.020;7.772;2024-01-30T02:18:05;13.33;;;11.67;;
19664;SDS011;9980;51.020;7.772;2024-01-30T02:20:32;11.83;;;10.57;;
19664;SDS011;9980;51.020;7.772;2024-01-30T02:23:02;10.70;;;9.67;;
19664;SDS011;9980;51.020;7.772;2024-01-30T02:25:30;12.23;;;10.97;;
19664;SDS011;9980;51.020;7.772;2024-01-30T02:27:59;15.63;;;12.97;;
19664;SDS011;9980;51.020;7.772;2024-01-30T02:30:26;12.53;;;11.20;;
19664;SDS011;9980;51.020;7.772;2024-01-30T02:32:53;10.97;;;9.87;;
19664;SDS011;9980;51.020;7.772;2024-01-30T02:35:20;15.50;;;12.30;;
19664;SDS011;9980;51.020;7.772;2024-01-30T02:37:47;13.40;;;12.07;;
19664;SDS011;9980;51.020;7.772;2024-01-30T02:40:14;10.83;;;9.73;;
19664;SDS011;9980;51.020;7.772;2024-01-30T02:42:41;12.37;;;11.17;;
19664;SDS011;9980;51.020;7.772;2024-01-30T02:45:08;12.80;;;11.07;;
19664;SDS011;9980;51.020;7.772;2024-01-30T02:47:36;13.60;;;11.47;;
19664;SDS011;9980;51.020;7.772;2024-01-30T02:50:03;12.33;;;11.10;;
19664;SDS011;9980;51.020;7.772;2024-01-30T02:52:31;14.50;;;12.53;;
19664;SDS011;9980;51.020;7.772;2024-01-30T02:54:58;13.63;;;12.10;;
19664;SDS011;9980;51.020;7.772;2024-01-30T02:57:25;15.73;;;13.43;;
19664;SDS011;9980;51.020;7.772;2024-01-30T02:59:52;15.17;;;12.87;;
19664;SDS011;9980;51.020;7.772;2024-01-30T03:02:18;12.07;;;10.63;;
19664;SDS011;9980;51.020;7.772;2024-01-30T03:04:45;11.93;;;10.83;;
19664;SDS011;9980;51.020;7.772;2024-01-30T03:07:13;15.87;;;13.77;;
19664;SDS011;9980;51.020;7.772;2024-01-30T03:09:41;18.77;;;13.77;;
19664;SDS011;9980;51.020;7.772;2024-01-30T03:12:11;14.13;;;11.90;;
19664;SDS011;9980;51.020;7.772;2024-01-30T03:14:38;12.00;;;10.70;;
19664;SDS011;9980;51.020;7.772;2024-01-30T03:17:05;13.53;;;11.03;;
19664;SDS011;9980;51.020;7.772;2024-01-30T03:19:31;14.93;;;12.13;;
19664;SDS011;9980;51.020;7.772;2024-01-30T03:21:59;13.13;;;11.33;;
19664;SDS011;9980;51.020;7.772;2024-01-30T03:24:26;11.30;;;10.20;;
19664;SDS011;9980;51.020;7.772;2024-01-30T03:26:53;15.47;;;12.50;;
19664;SDS011;9980;51.020;7.772;2024-01-30T03:29:20;13.73;;;12.20;;
19664;SDS011;9980;51.020;7.772;2024-01-30T03:31:46;16.17;;;13.47;;
19664;SDS011;9980;51.020;7.772;2024-01-30T03:34:13;11.83;;;10.50;;
19664;SDS011;9980;51.020;7.772;2024-01-30T03:36:41;15.83;;;13.03;;
19664;SDS011;9980;51.020;7.772;2024-01-30T03:39:07;13.87;;;12.07;;
19664;SDS011;9980;51.020;7.772;2024-01-30T03:41:34;10.67;;;9.67;;
19664;SDS011;9980;51.020;7.772;2024-01-30T03:44:01;12.07;;;10.90;;
19664;SDS011;9980;51.020;7.772;2024-01-30T03:46:28;13.23;;;11.83;;
19664;SDS011;9980;51.020;7.772;2024-01-30T03:48:55;13.10;;;11.33;;
19664;SDS011;9980;51.020;7.772;2024-01-30T03:51:22;14.23;;;12.83;;
19664;SDS011;9980;51.020;7.772;2024-01-30T03:53:49;17.83;;;13.97;;
19664;SDS011;9980;51.020;7.772;2024-01-30T03:56:16;14.17;;;12.67;;
19664;SDS011;9980;51.020;7.772;2024-01-30T03:58:43;14.53;;;12.83;;
19664;SDS011;9980;51.020;7.772;2024-01-30T04:01:13;13.90;;;12.50;;
19664;SDS011;9980;51.020;7.772;2024-01-30T04:03:41;16.87;;;12.90;;
19664;SDS011;9980;51.020;7.772;2024-01-30T04:06:10;15.67;;;13.97;;
19664;SDS011;9980;51.020;7.772;2024-01-30T04:08:37;14.60;;;12.97;;
19664;SDS011;9980;51.020;7.772;2024-01-30T04:11:04;13.33;;;11.93;;
19664;SDS011;9980;51.020;7.772;2024-01-30T04:13:32;11.73;;;10.63;;
19664;SDS011;9980;51.020;7.772;2024-01-30T04:16:00;15.30;;;12.50;;
19664;SDS011;9980;51.020;7.772;2024-01-30T04:18:30;16.40;;;14.50;;
19664;SDS011;9980;51.020;7.772;2024-01-30T04:20:57;16.80;;;12.53;;
19664;SDS011;9980;51.020;7.772;2024-01-30T04:23:24;11.83;;;10.63;;
19664;SDS011;9980;51.020;7.772;2024-01-30T04:25:50;13.00;;;11.63;;
19664;SDS011;9980;51.020;7.772;2024-01-30T04:28:17;13.10;;;10.80;;
19664;SDS011;9980;51.020;7.772;2024-01-30T04:30:45;13.43;;;12.07;;
19664;SDS011;9980;51.020;7.772;2024-01-30T04:33:11;15.97;;;12.70;;
19664;SDS011;9980;51.020;7.772;2024-01-30T04:35:39;14.73;;;12.57;;
19664;SDS011;9980;51.020;7.772;2024-01-30T04:38:05;15.13;;;13.53;;
19664;SDS011;9980;51.020;7.772;2024-01-30T04:40:32;13.40;;;11.73;;
19664;SDS011;9980;51.020;7.772;2024-01-30T04:42:59;16.20;;;13.00;;
19664;SDS011;9980;51.020;7.772;2024-01-30T04:45:26;19.50;;;12.97;;
19664;SDS011;9980;51.020;7.772;2024-01-30T04:47:53;14.83;;;11.27;;
19664;SDS011;9980;51.020;7.772;2024-01-30T04:50:20;15.80;;;13.20;;
19664;SDS011;9980;51.020;7.772;2024-01-30T04:52:47;12.93;;;11.17;;
19664;SDS011;9980;51.020;7.772;2024-01-30T04:55:14;12.87;;;11.67;;
19664;SDS011;9980;51.020;7.772;2024-01-30T04:57:41;15.63;;;12.87;;
19664;SDS011;9980;51.020;7.772;2024-01-30T05:00:08;17.13;;;12.97;;
19664;SDS011;9980;51.020;7.772;2024-01-30T05:02:36;15.43;;;13.10;;
19664;SDS011;9980;51.020;7.772;2024-01-30T05:05:02;14.17;;;12.73;;
19664;SDS011;9980;51.020;7.772;2024-01-30T05:07:30;16.57;;;13.27;;
19664;SDS011;9980;51.020;7.772;2024-01-30T05:09:57;17.17;;;13.63;;
19664;SDS011;9980;51.020;7.772;2024-01-30T05:12:26;17.27;;;12.87;;
19664;SDS011;9980;51.020;7.772;2024-01-30T05:14:53;19.27;;;15.57;;
19664;SDS011;9980;51.020;7.772;2024-01-30T05:17:20;15.70;;;12.13;;
19664;SDS011;9980;51.020;7.772;2024-01-30T05:19:46;20.13;;;15.80;;
19664;SDS011;9980;51.020;7.772;2024-01-30T05:22:14;16.97;;;14.03;;
19664;SDS011;9980;51.020;7.772;2024-01-30T05:24:42;17.33;;;13.80;;
19664;SDS011;9980;51.020;7.772;2024-01-30T05:27:09;23.03;;;17.23;;
19664;SDS011;9980;51.020;7.772;2024-01-30T05:29:36;19.80;;;14.97;;
19664;SDS011;9980;51.020;7.772;2024-01-30T05:32:03;19.17;;;15.50;;
19664;SDS011;9980;51.020;7.772;2024-01-30T05:34:31;15.80;;;13.07;;
19664;SDS011;9980;51.020;7.772;2024-01-30T05:36:59;17.07;;;14.37;;
19664;SDS011;9980;51.020;7.772;2024-01-30T05:39:26;22.37;;;16.70;;
19664;SDS011;9980;51.020;7.772;2024-01-30T05:41:53;19.63;;;15.50;;
19664;SDS011;9980;51.020;7.772;2024-01-30T05:44:20;14.30;;;12.73;;
19664;SDS011;9980;51.020;7.772;2024-01-30T05:46:47;20.33;;;13.83;;
19664;SDS011;9980;51.020;7.772;2024-01-30T05:49:14;15.43;;;12.30;;
19664;SDS011;9980;51.020;7.772;2024-01-30T05:51:40;16.90;;;13.43;;
19664;SDS011;9980;51.020;7.772;2024-01-30T05:54:07;18.80;;;14.90;;
19664;SDS011;9980;51.020;7.772;2024-01-30T05:56:34;18.27;;;13.60;;
19664;SDS011;9980;51.020;7.772;2024-01-30T05:59:01;15.80;;;12.20;;
19664;SDS011;9980;51.020;7.772;2024-01-30T06:01:28;18.43;;;14.30;;
19664;SDS011;9980;51.020;7.772;2024-01-30T06:03:55;15.23;;;13.47;;
19664;SDS011;9980;51.020;7.772;2024-01-30T06:06:22;18.67;;;13.87;;
19664;SDS011;9980;51.020;7.772;2024-01-30T06:08:49;13.07;;;11.67;;
19664;SDS011;9980;51.020;7.772;2024-01-30T06:11:16;12.77;;;10.70;;
19664;SDS011;9980;51.020;7.772;2024-01-30T06:13:44;19.23;;;15.30;;
19664;SDS011;9980;51.020;7.772;2024-01-30T06:16:11;13.93;;;11.10;;
19664;SDS011;9980;51.020;7.772;2024-01-30T06:18:38;18.77;;;14.10;;
19664;SDS011;9980;51.020;7.772;2024-01-30T06:21:05;13.13;;;11.73;;
19664;SDS011;9980;51.020;7.772;2024-01-30T06:23:35;15.83;;;13.53;;
19664;SDS011;9980;51.020;7.772;2024-01-30T06:26:02;15.50;;;13.53;;
19664;SDS011;9980;51.020;7.772;2024-01-30T06:28:29;18.30;;;15.20;;
19664;SDS011;9980;51.020;7.772;2024-01-30T06:30:56;19.27;;;15.03;;
19664;SDS011;9980;51.020;7.772;2024-01-30T06:33:24;23.77;;;15.70;;
19664;SDS011;9980;51.020;7.772;2024-01-30T06:35:51;18.23;;;15.13;;
19664;SDS011;9980;51.020;7.772;2024-01-30T06:38:18;17.40;;;15.47;;
19664;SDS011;9980;51.020;7.772;2024-01-30T06:40:45;20.73;;;16.53;;
19664;SDS011;9980;51.020;7.772;2024-01-30T06:43:12;20.27;;;16.30;;
19664;SDS011;9980;51.020;7.772;2024-01-30T06:45:39;18.40;;;16.07;;
19664;SDS011;9980;51.020;7.772;2024-01-30T06:48:07;20.70;;;15.53;;
19664;SDS011;9980;51.020;7.772;2024-01-30T06:50:34;18.67;;;15.00;;
19664;SDS011;9980;51.020;7.772;2024-01-30T06:53:01;17.40;;;14.83;;
19664;SDS011;9980;51.020;7.772;2024-01-30T06:55:28;20.40;;;15.07;;
19664;SDS011;9980;51.020;7.772;2024-01-30T06:57:55;16.60;;;13.80;;
19664;SDS011;9980;51.020;7.772;2024-01-30T07:00:22;19.53;;;16.20;;
19664;SDS011;9980;51.020;7.772;2024-01-30T07:02:50;20.33;;;16.43;;
19664;SDS011;9980;51.020;7.772;2024-01-30T07:05:17;20.50;;;16.03;;
19664;SDS011;9980;51.020;7.772;2024-01-30T07:07:43;20.97;;;15.70;;
19664;SDS011;9980;51.020;7.772;2024-01-30T07:10:10;24.93;;;19.27;;
19664;SDS011;9980;51.020;7.772;2024-01-30T07:12:37;18.50;;;15.63;;
19664;SDS011;9980;51.020;7.772;2024-01-30T07:15:05;27.67;;;18.87;;
19664;SDS011;9980;51.020;7.772;2024-01-30T07:17:35;28.30;;;20.17;;
19664;SDS011;9980;51.020;7.772;2024-01-30T07:20:02;36.10;;;22.63;;
19664;SDS011;9980;51.020;7.772;2024-01-30T07:22:32;37.73;;;23.30;;
19664;SDS011;9980;51.020;7.772;2024-01-30T07:24:59;55.10;;;31.17;;
19664;SDS011;9980;51.020;7.772;2024-01-30T07:27:27;49.27;;;30.53;;
19664;SDS011;9980;51.020;7.772;2024-01-30T07:29:54;51.83;;;30.30;;
19664;SDS011;9980;51.020;7.772;2024-01-30T07:32:21;42.93;;;26.80;;
19664;SDS011;9980;51.020;7.772;2024-01-30T07:34:48;43.00;;;25.87;;
19664;SDS011;9980;51.020;7.772;2024-01-30T07:37:32;43.60;;;26.33;;
19664;SDS011;9980;51.020;7.772;2024-01-30T07:39:59;37.43;;;26.40;;
19664;SDS011;9980;51.020;7.772;2024-01-30T07:42:27;46.70;;;27.63;;
19664;SDS011;9980;51.020;7.772;2024-01-30T07:44:54;41.80;;;27.83;;
19664;SDS011;9980;51.020;7.772;2024-01-30T07:47:21;48.30;;;33.03;;
19664;SDS011;9980;51.020;7.772;2024-01-30T07:49:48;37.93;;;26.60;;
19664;SDS011;9980;51.020;7.772;2024-01-30T07:52:15;56.87;;;38.30;;
19664;SDS011;9980;51.020;7.772;2024-01-30T07:54:43;54.60;;;35.57;;
19664;SDS011;9980;51.020;7.772;2024-01-30T07:57:10;58.40;;;38.67;;
19664;SDS011;9980;51.020;7.772;2024-01-30T07:59:37;56.37;;;36.50;;
19664;SDS011;9980;51.020;7.772;2024-01-30T08:02:03;59.53;;;36.63;;
19664;SDS011;9980;51.020;7.772;2024-01-30T08:04:30;50.40;;;33.27;;
19664;SDS011;9980;51.020;7.772;2024-01-30T08:06:57;44.07;;;29.27;;
19664;SDS011;9980;51.020;7.772;2024-01-30T08:09:24;41.37;;;29.60;;
19664;SDS011;9980;51.020;7.772;2024-01-30T08:11:51;44.00;;;30.77;;
19664;SDS011;9980;51.020;7.772;2024-01-30T08:14:18;43.43;;;26.93;;
19664;SDS011;9980;51.020;7.772;2024-01-30T08:16:45;28.07;;;21.47;;
19664;SDS011;9980;51.020;7.772;2024-01-30T08:19:14;28.83;;;20.87;;
19664;SDS011;9980;51.020;7.772;2024-01-30T08:21:41;25.97;;;20.40;;
19664;SDS011;9980;51.020;7.772;2024-01-30T08:24:08;28.77;;;21.40;;
19664;SDS011;9980;51.020;7.772;2024-01-30T08:26:35;28.47;;;20.13;;
19664;SDS011;9980;51.020;7.772;2024-01-30T08:29:03;25.63;;;19.10;;
19664;SDS011;9980;51.020;7.772;2024-01-30T08:31:30;24.77;;;18.63;;
19664;SDS011;9980;51.020;7.772;2024-01-30T08:33:57;25.90;;;18.07;;
19664;SDS011;9980;51.020;7.772;2024-01-30T08:36:25;21.93;;;17.23;;
19664;SDS011;9980;51.020;7.772;2024-01-30T08:38:52;22.43;;;18.07;;
19664;SDS011;9980;51.020;7.772;2024-01-30T08:41:25;21.53;;;16.67;;
19664;SDS011;9980;51.020;7.772;2024-01-30T08:43:52;21.27;;;14.80;;
19664;SDS011;9980;51.020;7.772;2024-01-30T08:46:19;20.90;;;16.20;;
19664;SDS011;9980;51.020;7.772;2024-01-30T08:48:46;21.40;;;15.77;;
19664;SDS011;9980;51.020;7.772;2024-01-30T08:51:14;22.27;;;15.70;;
19664;SDS011;9980;51.020;7.772;2024-01-30T08:53:41;26.03;;;17.00;;
19664;SDS011;9980;51.020;7.772;2024-01-30T08:56:09;19.07;;;15.47;;
19664;SDS011;9980;51.020;7.772;2024-01-30T08:58:36;17.83;;;14.50;;
19664;SDS011;9980;51.020;7.772;2024-01-30T09:01:03;24.17;;;15.57;;
19664;SDS011;9980;51.020;7.772;2024-01-30T09:03:31;17.97;;;13.83;;
19664;SDS011;9980;51.020;7.772;2024-01-30T09:05:58;15.87;;;13.43;;
19664;SDS011;9980;51.020;7.772;2024-01-30T09:08:25;21.00;;;14.87;;
19664;SDS011;9980;51.020;7.772;2024-01-30T09:10:52;15.13;;;13.43;;
19664;SDS011;9980;51.020;7.772;2024-01-30T09:13:19;15.73;;;14.00;;
19664;SDS011;9980;51.020;7.772;2024-01-30T09:15:46;19.60;;;13.37;;
19664;SDS011;9980;51.020;7.772;2024-01-30T09:18:13;14.20;;;12.07;;
19664;SDS011;9980;51.020;7.772;2024-01-30T09:20:40;16.03;;;12.30;;
19664;SDS011;9980;51.020;7.772;2024-01-30T09:23:07;15.83;;;12.37;;
19664;SDS011;9980;51.020;7.772;2024-01-30T09:25:34;15.10;;;12.50;;
19664;SDS011;9980;51.020;7.772;2024-01-30T09:28:01;14.53;;;11.33;;
19664;SDS011;9980;51.020;7.772;2024-01-30T09:30:28;14.13;;;11.53;;
19664;SDS011;9980;51.020;7.772;2024-01-30T09:32:55;13.17;;;11.77;;
19664;SDS011;9980;51.020;7.772;2024-01-30T09:35:22;18.33;;;11.63;;
19664;SDS011;9980;51.020;7.772;2024-01-30T09:37:49;12.50;;;11.20;;
19664;SDS011;9980;51.020;7.772;2024-01-30T09:40:18;18.17;;;12.13;;
19664;SDS011;9980;51.020;7.772;2024-01-30T09:42:46;13.80;;;12.27;;
19664;SDS011;9980;51.020;7.772;2024-01-30T09:45:20;13.50;;;11.37;;
19664;SDS011;9980;51.020;7.772;2024-01-30T09:47:51;14.90;;;11.90;;
19664;SDS011;9980;51.020;7.772;2024-01-30T09:50:19;13.67;;;11.00;;
19664;SDS011;9980;51.020;7.772;2024-01-30T09:52:47;14.47;;;10.47;;
19664;SDS011;9980;51.020;7.772;2024-01-30T09:55:14;13.60;;;11.60;;
19664;SDS011;9980;51.020;7.772;2024-01-30T09:57:41;15.87;;;11.37;;
19664;SDS011;9980;51.020;7.772;2024-01-30T10:00:09;16.47;;;12.07;;
19664;SDS011;9980;51.020;7.772;2024-01-30T10:02:38;15.50;;;11.47;;
19664;SDS011;9980;51.020;7.772;2024-01-30T10:05:07;15.23;;;11.03;;
19664;SDS011;9980;51.020;7.772;2024-01-30T10:07:35;14.67;;;11.67;;
19664;SDS011;9980;51.020;7.772;2024-01-30T10:10:02;14.73;;;10.77;;
19664;SDS011;9980;51.020;7.772;2024-01-30T10:12:32;13.70;;;11.07;;
19664;SDS011;9980;51.020;7.772;2024-01-30T10:14:58;13.07;;;9.80;;
19664;SDS011;9980;51.020;7.772;2024-01-30T10:17:25;12.77;;;10.00;;
19664;SDS011;9980;51.020;7.772;2024-01-30T10:19:59;11.47;;;10.07;;
19664;SDS011;9980;51.020;7.772;2024-01-30T10:22:30;11.43;;;10.07;;
19664;SDS011;9980;51.020;7.772;2024-01-30T10:24:57;13.77;;;10.03;;
19664;SDS011;9980;51.020;7.772;2024-01-30T10:27:31;19.57;;;11.20;;
19664;SDS011;9980;51.020;7.772;2024-01-30T10:29:58;14.27;;;9.83;;
19664;SDS011;9980;51.020;7.772;2024-01-30T10:32:26;11.30;;;10.10;;
19664;SDS011;9980;51.020;7.772;2024-01-30T10:34:53;13.90;;;11.10;;
19664;SDS011;9980;51.020;7.772;2024-01-30T10:37:21;12.70;;;10.73;;
19664;SDS011;9980;51.020;7.772;2024-01-30T10:39:54;12.60;;;9.80;;
19664;SDS011;9980;51.020;7.772;2024-01-30T10:42:25;12.47;;;10.27;;
19664;SDS011;9980;51.020;7.772;2024-01-30T10:44:57;11.43;;;9.33;;
19664;SDS011;9980;51.020;7.772;2024-01-30T10:47:33;9.93;;;9.00;;
19664;SDS011;9980;51.020;7.772;2024-01-30T10:50:05;11.40;;;9.90;;
19664;SDS011;9980;51.020;7.772;2024-01-30T10:52:34;12.17;;;9.47;;
19664;SDS011;9980;51.020;7.772;2024-01-30T10:55:02;13.30;;;9.57;;
19664;SDS011;9980;51.020;7.772;2024-01-30T10:57:34;11.20;;;9.23;;
19664;SDS011;9980;51.020;7.772;2024-01-30T11:00:06;13.70;;;9.93;;
19664;SDS011;9980;51.020;7.772;2024-01-30T11:02:37;12.43;;;9.70;;
19664;SDS011;9980;51.020;7.772;2024-01-30T11:05:07;18.23;;;9.70;;
19664;SDS011;9980;51.020;7.772;2024-01-30T11:07:35;11.80;;;9.00;;
19664;SDS011;9980;51.020;7.772;2024-01-30T11:10:02;11.77;;;9.30;;
19664;SDS011;9980;51.020;7.772;2024-01-30T11:12:31;10.93;;;9.57;;
19664;SDS011;9980;51.020;7.772;2024-01-30T11:20:30;11.60;;;9.50;;
19664;SDS011;9980;51.020;7.772;2024-01-30T11:22:58;11.20;;;9.03;;
19664;SDS011;9980;51.020;7.772;2024-01-30T11:25:28;11.30;;;8.67;;
19664;SDS011;9980;51.020;7.772;2024-01-30T11:27:58;12.13;;;8.73;;
19664;SDS011;9980;51.020;7.772;2024-01-30T11:30:29;10.50;;;9.20;;
19664;SDS011;9980;51.020;7.772;2024-01-30T11:33:01;11.83;;;8.73;;
19664;SDS011;9980;51.020;7.772;2024-01-30T11:35:35;10.83;;;8.57;;
19664;SDS011;9980;51.020;7.772;2024-01-30T11:38:12;12.17;;;7.90;;
19664;SDS011;9980;51.020;7.772;2024-01-30T11:40:41;10.23;;;7.57;;
19664;SDS011;9980;51.020;7.772;2024-01-30T11:43:09;11.57;;;7.60;;
19664;SDS011;9980;51.020;7.772;2024-01-30T11:45:37;11.60;;;8.00;;
19664;SDS011;9980;51.020;7.772;2024-01-30T11:48:06;9.40;;;8.17;;
19664;SDS011;9980;51.020;7.772;2024-01-30T11:50:37;8.17;;;7.37;;
19664;SDS011;9980;51.020;7.772;2024-01-30T11:53:06;8.90;;;8.00;;
19664;SDS011;9980;51.020;7.772;2024-01-30T11:55:34;9.00;;;7.83;;
19664;SDS011;9980;51.020;7.772;2024-01-30T11:58:03;9.60;;;8.20;;
19664;SDS011;9980;51.020;7.772;2024-01-30T12:00:31;11.07;;;8.70;;
19664;SDS011;9980;51.020;7.772;2024-01-30T12:02:59;8.13;;;7.33;;
19664;SDS011;9980;51.020;7.772;2024-01-30T12:05:27;8.77;;;7.87;;
19664;SDS011;9980;51.020;7.772;2024-01-30T12:07:55;10.27;;;8.10;;
19664;SDS011;9980;51.020;7.772;2024-01-30T12:10:25;10.03;;;7.07;;
19664;SDS011;9980;51.020;7.772;2024-01-30T12:12:53;9.37;;;8.10;;
19664;SDS011;9980;51.020;7.772;2024-01-30T12:15:21;11.17;;;8.13;;
19664;SDS011;9980;51.020;7.772;2024-01-30T12:17:49;10.03;;;8.67;;
19664;SDS011;9980;51.020;7.772;2024-01-30T12:20:19;8.37;;;7.57;;
19664;SDS011;9980;51.020;7.772;2024-01-30T12:22:49;8.03;;;7.10;;
19664;SDS011;9980;51.020;7.772;2024-01-30T12:25:17;8.80;;;7.90;;
19664;SDS011;9980;51.020;7.772;2024-01-30T12:27:48;10.60;;;7.80;;
19664;SDS011;9980;51.020;7.772;2024-01-30T12:30:18;10.03;;;7.80;;
19664;SDS011;9980;51.020;7.772;2024-01-30T12:32:49;12.50;;;10.33;;
19664;SDS011;9980;51.020;7.772;2024-01-30T12:35:18;10.07;;;8.43;;
19664;SDS011;9980;51.020;7.772;2024-01-30T12:37:48;9.30;;;8.40;;
19664;SDS011;9980;51.020;7.772;2024-01-30T12:40:16;9.83;;;7.40;;
19664;SDS011;9980;51.020;7.772;2024-01-30T12:42:46;11.90;;;8.27;;
19664;SDS011;9980;51.020;7.772;2024-01-30T12:45:16;11.47;;;8.13;;
19664;SDS011;9980;51.020;7.772;2024-01-30T12:47:49;10.47;;;7.80;;
19664;SDS011;9980;51.020;7.772;2024-01-30T12:50:16;8.80;;;7.97;;
19664;SDS011;9980;51.020;7.772;2024-01-30T12:52:44;9.23;;;8.17;;
19664;SDS011;9980;51.020;7.772;2024-01-30T12:55:15;10.57;;;8.73;;
19664;SDS011;9980;51.020;7.772;2024-01-30T12:57:44;8.27;;;7.23;;
19664;SDS011;9980;51.020;7.772;2024-01-30T13:00:11;9.60;;;7.50;;
19664;SDS011;9980;51.020;7.772;2024-01-30T13:02:38;9.50;;;7.93;;
19664;SDS011;9980;51.020;7.772;2024-01-30T13:05:05;11.07;;;7.93;;
19664;SDS011;9980;51.020;7.772;2024-01-30T13:07:34;7.97;;;7.17;;
19664;SDS011;9980;51.020;7.772;2024-01-30T13:10:02;7.63;;;6.87;;
19664;SDS011;9980;51.020;7.772;2024-01-30T13:12:30;9.27;;;7.53;;
19664;SDS011;9980;51.020;7.772;2024-01-30T13:14:59;9.13;;;7.37;;
19664;SDS011;9980;51.020;7.772;2024-01-30T13:17:27;11.80;;;8.03;;
19664;SDS011;9980;51.020;7.772;2024-01-30T13:19:54;7.87;;;7.07;;
19664;SDS011;9980;51.020;7.772;2024-01-30T13:22:27;10.33;;;7.93;;
19664;SDS011;9980;51.020;7.772;2024-01-30T13:24:55;8.70;;;7.90;;
19664;SDS011;9980;51.020;7.772;2024-01-30T13:27:21;8.60;;;6.87;;
19664;SDS011;9980;51.020;7.772;2024-01-30T13:29:48;8.37;;;6.90;;
19664;SDS011;9980;51.020;7.772;2024-01-30T13:32:15;8.57;;;6.60;;
19664;SDS011;9980;51.020;7.772;2024-01-30T13:34:42;8.03;;;6.90;;
19664;SDS011;9980;51.020;7.772;2024-01-30T13:37:09;9.90;;;6.97;;
19664;SDS011;9980;51.020;7.772;2024-01-30T13:39:37;9.50;;;7.20;;
19664;SDS011;9980;51.020;7.772;2024-01-30T13:42:05;8.10;;;6.73;;
19664;SDS011;9980;51.020;7.772;2024-01-30T13:44:32;7.10;;;6.37;;
19664;SDS011;9980;51.020;7.772;2024-01-30T13:46:59;8.57;;;7.37;;
19664;SDS011;9980;51.020;7.772;2024-01-30T13:49:26;10.03;;;7.03;;
19664;SDS011;9980;51.020;7.772;2024-01-30T13:51:55;7.40;;;6.63;;
19664;SDS011;9980;51.020;7.772;2024-01-30T13:54:23;7.93;;;7.07;;
19664;SDS011;9980;51.020;7.772;2024-01-30T13:56:50;7.57;;;6.77;;
19664;SDS011;9980;51.020;7.772;2024-01-30T13:59:18;8.23;;;6.30;;
19664;SDS011;9980;51.020;7.772;2024-01-30T14:01:50;10.03;;;6.77;;
19664;SDS011;9980;51.020;7.772;2024-01-30T14:04:17;7.70;;;6.90;;
19664;SDS011;9980;51.020;7.772;2024-01-30T14:06:44;8.60;;;6.40;;
19664;SDS011;9980;51.020;7.772;2024-01-30T14:09:22;13.63;;;7.27;;
19664;SDS011;9980;51.020;7.772;2024-01-30T14:11:49;7.43;;;5.67;;
19664;SDS011;9980;51.020;7.772;2024-01-30T14:14:16;13.67;;;7.13;;
19664;SDS011;9980;51.020;7.772;2024-01-30T14:16:43;6.53;;;5.93;;
19664;SDS011;9980;51.020;7.772;2024-01-30T14:19:10;8.50;;;7.43;;
19664;SDS011;9980;51.020;7.772;2024-01-30T14:21:37;9.33;;;6.50;;
19664;SDS011;9980;51.020;7.772;2024-01-30T14:24:06;6.63;;;6.00;;
19664;SDS011;9980;51.020;7.772;2024-01-30T14:26:33;7.87;;;6.87;;
19664;SDS011;9980;51.020;7.772;2024-01-30T14:29:00;9.63;;;7.43;;
19664;SDS011;9980;51.020;7.772;2024-01-30T14:31:27;9.20;;;7.43;;
19664;SDS011;9980;51.020;7.772;2024-01-30T14:33:54;9.97;;;7.53;;
19664;SDS011;9980;51.020;7.772;2024-01-30T14:36:21;8.30;;;7.27;;
19664;SDS011;9980;51.020;7.772;2024-01-30T14:38:48;9.57;;;7.47;;
19664;SDS011;9980;51.020;7.772;2024-01-30T14:41:15;7.90;;;7.07;;
19664;SDS011;9980;51.020;7.772;2024-01-30T14:43:42;9.50;;;7.60;;
19664;SDS011;9980;51.020;7.772;2024-01-30T14:46:09;8.70;;;7.20;;
19664;SDS011;9980;51.020;7.772;2024-01-30T14:48:36;14.40;;;6.83;;